sensor_id;sensor_type;location;lat;lon;timestamp;temperature;humidity
55008;DHT22;40902;45.116;21.296;2024-02-28T00:02:23;358.80;2124.80
55008;DHT22;40902;45.116;21.296;2024-02-28T00:04:49;358.70;2124.80
55008;DHT22;40902;45.116;21.296;2024-02-28T00:07:15;358.80;2124.80
55008;DHT22;40902;45.116;21.296;2024-02-28T00:09:40;358.70;2124.80
55008;DHT22;40902;45.116;21.296;2024-02-28T00:12:06;358.70;2124.80
55008;DHT22;40902;45.116;21.296;2024-02-28T00:14:32;358.70;2124.80
55008;DHT22;40902;45.116;21.296;2024-02-28T00:16:58;358.60;2124.80
55008;DHT22;40902;45.116;21.296;2024-02-28T00:19:23;358.60;2124.80
55008;DHT22;40902;45.116;21.296;2024-02-28T00:21:50;358.60;2124.80
55008;DHT22;40902;45.116;21.296;2024-02-28T00:24:16;358.60;2150.40
55008;DHT22;40902;45.116;21.296;2024-02-28T00:26:43;358.60;2150.40
55008;DHT22;40902;45.116;21.296;2024-02-28T00:29:11;358.60;2150.40
55008;DHT22;40902;45.116;21.296;2024-02-28T00:31:37;358.60;2150.40
55008;DHT22;40902;45.116;21.296;2024-02-28T00:34:02;358.60;2150.40
55008;DHT22;40902;45.116;21.296;2024-02-28T00:36:28;358.60;2150.40
55008;DHT22;40902;45.116;21.296;2024-02-28T00:38:54;358.60;2150.40
55008;DHT22;40902;45.116;21.296;2024-02-28T00:41:20;358.60;2150.40
55008;DHT22;40902;45.116;21.296;2024-02-28T00:43:45;358.50;2150.40
55008;DHT22;40902;45.116;21.296;2024-02-28T00:46:11;358.50;2176.00
55008;DHT22;40902;45.116;21.296;2024-02-28T00:48:40;358.50;2176.00
55008;DHT22;40902;45.116;21.296;2024-02-28T00:51:06;358.50;2176.00
55008;DHT22;40902;45.116;21.296;2024-02-28T00:53:33;358.50;2150.40
55008;DHT22;40902;45.116;21.296;2024-02-28T00:55:59;358.50;2150.40
55008;DHT22;40902;45.116;21.296;2024-02-28T00:58:25;358.50;2176.00
55008;DHT22;40902;45.116;21.296;2024-02-28T01:00:53;358.50;2176.00
55008;DHT22;40902;45.116;21.296;2024-02-28T01:03:19;358.50;2176.00
55008;DHT22;40902;45.116;21.296;2024-02-28T01:05:45;358.50;2176.00
55008;DHT22;40902;45.116;21.296;2024-02-28T01:08:11;358.40;2176.00
55008;DHT22;40902;45.116;21.296;2024-02-28T01:10:37;358.50;2176.00
55008;DHT22;40902;45.116;21.296;2024-02-28T01:13:03;358.50;2176.00
55008;DHT22;40902;45.116;21.296;2024-02-28T01:15:29;358.50;2176.00
55008;DHT22;40902;45.116;21.296;2024-02-28T01:17:55;358.50;2176.00
55008;DHT22;40902;45.116;21.296;2024-02-28T01:20:21;358.50;2176.00
55008;DHT22;40902;45.116;21.296;2024-02-28T01:22:46;358.50;2176.00
55008;DHT22;40902;45.116;21.296;2024-02-28T01:25:13;358.50;2176.00
55008;DHT22;40902;45.116;21.296;2024-02-28T01:27:38;358.50;2176.00
55008;DHT22;40902;45.116;21.296;2024-02-28T01:30:05;358.50;2176.00
55008;DHT22;40902;45.116;21.296;2024-02-28T01:32:31;358.50;2176.00
55008;DHT22;40902;45.116;21.296;2024-02-28T01:34:57;358.50;2176.00
55008;DHT22;40902;45.116;21.296;2024-02-28T01:37:22;358.60;2176.00
55008;DHT22;40902;45.116;21.296;2024-02-28T01:39:48;358.60;2176.00
55008;DHT22;40902;45.116;21.296;2024-02-28T01:42:14;358.50;2176.00
55008;DHT22;40902;45.116;21.296;2024-02-28T01:44:45;358.50;2176.00
55008;DHT22;40902;45.116;21.296;2024-02-28T01:47:11;358.50;2176.00
55008;DHT22;40902;45.116;21.296;2024-02-28T01:49:38;358.50;2176.00
55008;DHT22;40902;45.116;21.296;2024-02-28T01:52:05;358.50;2176.00
55008;DHT22;40902;45.116;21.296;2024-02-28T01:54:31;358.50;2176.00
55008;DHT22;40902;45.116;21.296;2024-02-28T01:56:58;358.50;2176.00
55008;DHT22;40902;45.116;21.296;2024-02-28T01:59:24;358.50;2176.00
55008;DHT22;40902;45.116;21.296;2024-02-28T02:01:51;358.50;2176.00
55008;DHT22;40902;45.116;21.296;2024-02-28T02:04:17;358.60;2176.00
55008;DHT22;40902;45.116;21.296;2024-02-28T02:06:44;358.60;2150.40
55008;DHT22;40902;45.116;21.296;2024-02-28T02:09:11;358.60;2150.40
55008;DHT22;40902;45.116;21.296;2024-02-28T02:11:38;358.60;2150.40
55008;DHT22;40902;45.116;21.296;2024-02-28T02:14:04;358.60;2150.40
55008;DHT22;40902;45.116;21.296;2024-02-28T02:16:30;358.60;2150.40
55008;DHT22;40902;45.116;21.296;2024-02-28T02:18:56;358.60;2150.40
55008;DHT22;40902;45.116;21.296;2024-02-28T02:21:30;358.60;2150.40
55008;DHT22;40902;45.116;21.296;2024-02-28T02:23:56;358.60;2150.40
55008;DHT22;40902;45.116;21.296;2024-02-28T02:26:21;358.60;2124.80
55008;DHT22;40902;45.116;21.296;2024-02-28T02:28:47;358.60;2124.80
55008;DHT22;40902;45.116;21.296;2024-02-28T02:31:13;358.60;2124.80
55008;DHT22;40902;45.116;21.296;2024-02-28T02:33:39;358.60;2124.80
55008;DHT22;40902;45.116;21.296;2024-02-28T02:36:05;358.60;2124.80
55008;DHT22;40902;45.116;21.296;2024-02-28T02:38:31;358.60;2099.20
55008;DHT22;40902;45.116;21.296;2024-02-28T02:40:57;358.60;2099.20
55008;DHT22;40902;45.116;21.296;2024-02-28T02:43:23;358.60;2099.20
55008;DHT22;40902;45.116;21.296;2024-02-28T02:45:48;358.60;2099.20
55008;DHT22;40902;45.116;21.296;2024-02-28T02:48:14;358.60;2099.20
55008;DHT22;40902;45.116;21.296;2024-02-28T02:50:40;358.60;2099.20
55008;DHT22;40902;45.116;21.296;2024-02-28T02:53:09;358.60;2099.20
55008;DHT22;40902;45.116;21.296;2024-02-28T02:55:34;358.60;2073.60
55008;DHT22;40902;45.116;21.296;2024-02-28T02:58:00;358.60;2073.60
55008;DHT22;40902;45.116;21.296;2024-02-28T03:00:26;358.60;2073.60
55008;DHT22;40902;45.116;21.296;2024-02-28T03:02:52;358.50;2073.60
55008;DHT22;40902;45.116;21.296;2024-02-28T03:05:17;358.50;2073.60
55008;DHT22;40902;45.116;21.296;2024-02-28T03:07:43;358.60;2073.60
55008;DHT22;40902;45.116;21.296;2024-02-28T03:10:09;358.50;2073.60
55008;DHT22;40902;45.116;21.296;2024-02-28T03:12:36;358.50;2073.60
55008;DHT22;40902;45.116;21.296;2024-02-28T03:15:02;358.50;2073.60
55008;DHT22;40902;45.116;21.296;2024-02-28T03:17:28;358.50;2073.60
55008;DHT22;40902;45.116;21.296;2024-02-28T03:19:54;358.50;2073.60
55008;DHT22;40902;45.116;21.296;2024-02-28T03:22:20;358.50;2073.60
55008;DHT22;40902;45.116;21.296;2024-02-28T03:24:46;358.50;2073.60
55008;DHT22;40902;45.116;21.296;2024-02-28T03:27:12;358.50;2073.60
55008;DHT22;40902;45.116;21.296;2024-02-28T03:29:38;358.40;2073.60
55008;DHT22;40902;45.116;21.296;2024-02-28T03:32:04;358.60;2099.20
55008;DHT22;40902;45.116;21.296;2024-02-28T03:34:30;358.40;2073.60
55008;DHT22;40902;45.116;21.296;2024-02-28T03:36:55;358.40;2073.60
55008;DHT22;40902;45.116;21.296;2024-02-28T03:39:21;358.40;2073.60
55008;DHT22;40902;45.116;21.296;2024-02-28T03:41:47;358.40;2073.60
55008;DHT22;40902;45.116;21.296;2024-02-28T03:44:13;358.40;2073.60
55008;DHT22;40902;45.116;21.296;2024-02-28T03:46:38;358.40;2073.60
55008;DHT22;40902;45.116;21.296;2024-02-28T03:49:04;358.40;2073.60
55008;DHT22;40902;45.116;21.296;2024-02-28T03:51:30;358.40;2073.60
55008;DHT22;40902;45.116;21.296;2024-02-28T03:53:56;358.40;2073.60
55008;DHT22;40902;45.116;21.296;2024-02-28T03:56:25;358.40;2073.60
55008;DHT22;40902;45.116;21.296;2024-02-28T03:58:52;358.40;2073.60
55008;DHT22;40902;45.116;21.296;2024-02-28T04:01:18;333.70;2073.60
55008;DHT22;40902;45.116;21.296;2024-02-28T04:03:44;358.40;2073.60
55008;DHT22;40902;45.116;21.296;2024-02-28T04:06:11;358.40;2073.60
55008;DHT22;40902;45.116;21.296;2024-02-28T04:08:37;358.40;2073.60
55008;DHT22;40902;45.116;21.296;2024-02-28T04:11:03;358.40;2048.00
55008;DHT22;40902;45.116;21.296;2024-02-28T04:13:28;358.40;2048.00
55008;DHT22;40902;45.116;21.296;2024-02-28T04:15:54;358.40;2048.00
55008;DHT22;40902;45.116;21.296;2024-02-28T04:18:21;358.40;2048.00
55008;DHT22;40902;45.116;21.296;2024-02-28T04:20:46;358.40;2048.00
55008;DHT22;40902;45.116;21.296;2024-02-28T04:23:12;358.40;2048.00
55008;DHT22;40902;45.116;21.296;2024-02-28T04:25:38;358.50;2048.00
55008;DHT22;40902;45.116;21.296;2024-02-28T04:28:06;358.40;2048.00
55008;DHT22;40902;45.116;21.296;2024-02-28T04:30:35;358.40;2048.00
55008;DHT22;40902;45.116;21.296;2024-02-28T04:33:01;358.40;2048.00
55008;DHT22;40902;45.116;21.296;2024-02-28T04:35:28;358.40;2048.00
55008;DHT22;40902;45.116;21.296;2024-02-28T04:37:53;358.40;2048.00
55008;DHT22;40902;45.116;21.296;2024-02-28T04:40:19;358.40;2048.00
55008;DHT22;40902;45.116;21.296;2024-02-28T04:42:45;358.40;2048.00
55008;DHT22;40902;45.116;21.296;2024-02-28T04:45:10;358.40;2048.00
55008;DHT22;40902;45.116;21.296;2024-02-28T04:47:37;358.40;2048.00
55008;DHT22;40902;45.116;21.296;2024-02-28T04:50:04;358.40;2048.00
55008;DHT22;40902;45.116;21.296;2024-02-28T04:52:31;358.40;2048.00
55008;DHT22;40902;45.116;21.296;2024-02-28T04:54:57;358.40;2048.00
55008;DHT22;40902;45.116;21.296;2024-02-28T04:57:23;358.40;2048.00
55008;DHT22;40902;45.116;21.296;2024-02-28T04:59:49;358.40;2048.00
55008;DHT22;40902;45.116;21.296;2024-02-28T05:02:15;358.40;2048.00
55008;DHT22;40902;45.116;21.296;2024-02-28T05:04:42;358.40;2048.00
55008;DHT22;40902;45.116;21.296;2024-02-28T05:07:08;358.40;2048.00
55008;DHT22;40902;45.116;21.296;2024-02-28T05:09:34;333.70;2073.60
55008;DHT22;40902;45.116;21.296;2024-02-28T05:12:00;333.70;2099.20
55008;DHT22;40902;45.116;21.296;2024-02-28T05:14:25;333.70;2099.20
55008;DHT22;40902;45.116;21.296;2024-02-28T05:16:51;333.70;2099.20
55008;DHT22;40902;45.116;21.296;2024-02-28T05:19:17;333.70;2124.80
55008;DHT22;40902;45.116;21.296;2024-02-28T05:21:46;333.70;2124.80
55008;DHT22;40902;45.116;21.296;2024-02-28T05:24:11;333.70;2124.80
55008;DHT22;40902;45.116;21.296;2024-02-28T05:26:38;333.70;2124.80
55008;DHT22;40902;45.116;21.296;2024-02-28T05:29:05;333.70;2150.40
55008;DHT22;40902;45.116;21.296;2024-02-28T05:31:32;333.70;2124.80
55008;DHT22;40902;45.116;21.296;2024-02-28T05:33:58;333.70;2124.80
55008;DHT22;40902;45.116;21.296;2024-02-28T05:36:26;358.40;2124.80
55008;DHT22;40902;45.116;21.296;2024-02-28T05:38:53;358.50;2124.80
55008;DHT22;40902;45.116;21.296;2024-02-28T05:41:19;358.90;2124.80
55008;DHT22;40902;45.116;21.296;2024-02-28T05:43:45;358.70;2124.80
55008;DHT22;40902;45.116;21.296;2024-02-28T05:46:15;358.70;2124.80
55008;DHT22;40902;45.116;21.296;2024-02-28T05:48:41;358.80;2124.80
55008;DHT22;40902;45.116;21.296;2024-02-28T05:51:07;358.80;2124.80
55008;DHT22;40902;45.116;21.296;2024-02-28T05:53:34;358.90;2124.80
55008;DHT22;40902;45.116;21.296;2024-02-28T05:56:07;358.90;2124.80
55008;DHT22;40902;45.116;21.296;2024-02-28T05:58:42;359.00;2124.80
55008;DHT22;40902;45.116;21.296;2024-02-28T06:01:09;359.00;2150.40
55008;DHT22;40902;45.116;21.296;2024-02-28T06:03:36;359.10;2150.40
55008;DHT22;40902;45.116;21.296;2024-02-28T06:06:02;359.10;2150.40
55008;DHT22;40902;45.116;21.296;2024-02-28T06:08:34;359.00;2150.40
55008;DHT22;40902;45.116;21.296;2024-02-28T06:11:01;359.10;2150.40
55008;DHT22;40902;45.116;21.296;2024-02-28T06:13:28;359.10;2150.40
55008;DHT22;40902;45.116;21.296;2024-02-28T06:15:55;359.10;2176.00
55008;DHT22;40902;45.116;21.296;2024-02-28T06:18:21;359.20;2176.00
55008;DHT22;40902;45.116;21.296;2024-02-28T06:20:48;359.10;2176.00
55008;DHT22;40902;45.116;21.296;2024-02-28T06:23:14;359.10;2176.00
55008;DHT22;40902;45.116;21.296;2024-02-28T06:25:40;359.10;2201.60
55008;DHT22;40902;45.116;21.296;2024-02-28T06:28:06;359.10;2201.60
55008;DHT22;40902;45.116;21.296;2024-02-28T06:30:33;359.10;2201.60
55008;DHT22;40902;45.116;21.296;2024-02-28T06:32:59;359.10;2201.60
55008;DHT22;40902;45.116;21.296;2024-02-28T06:35:26;359.00;2227.20
55008;DHT22;40902;45.116;21.296;2024-02-28T06:37:51;359.10;2227.20
55008;DHT22;40902;45.116;21.296;2024-02-28T06:40:17;359.10;2227.20
55008;DHT22;40902;45.116;21.296;2024-02-28T06:42:43;359.10;2227.20
55008;DHT22;40902;45.116;21.296;2024-02-28T06:45:09;359.10;2227.20
55008;DHT22;40902;45.116;21.296;2024-02-28T06:47:35;359.10;2227.20
55008;DHT22;40902;45.116;21.296;2024-02-28T06:50:05;359.10;2227.20
55008;DHT22;40902;45.116;21.296;2024-02-28T06:52:31;359.10;2227.20
55008;DHT22;40902;45.116;21.296;2024-02-28T06:54:57;359.10;2252.80
55008;DHT22;40902;45.116;21.296;2024-02-28T06:57:23;359.10;2252.80
55008;DHT22;40902;45.116;21.296;2024-02-28T06:59:49;359.20;2252.80
55008;DHT22;40902;45.116;21.296;2024-02-28T07:02:15;359.30;2252.80
55008;DHT22;40902;45.116;21.296;2024-02-28T07:04:41;384.00;2252.80
55008;DHT22;40902;45.116;21.296;2024-02-28T07:07:08;384.10;2252.80
55008;DHT22;40902;45.116;21.296;2024-02-28T07:09:34;384.20;2252.80
55008;DHT22;40902;45.116;21.296;2024-02-28T07:12:00;384.20;2227.20
55008;DHT22;40902;45.116;21.296;2024-02-28T07:14:28;384.40;2227.20
55008;DHT22;40902;45.116;21.296;2024-02-28T07:16:54;384.50;2227.20
55008;DHT22;40902;45.116;21.296;2024-02-28T07:19:21;384.60;2227.20
55008;DHT22;40902;45.116;21.296;2024-02-28T07:21:46;384.70;2201.60
55008;DHT22;40902;45.116;21.296;2024-02-28T07:24:12;384.80;2201.60
55008;DHT22;40902;45.116;21.296;2024-02-28T07:26:38;384.90;2201.60
55008;DHT22;40902;45.116;21.296;2024-02-28T07:29:06;384.90;2176.00
55008;DHT22;40902;45.116;21.296;2024-02-28T07:31:31;409.60;2201.60
55008;DHT22;40902;45.116;21.296;2024-02-28T07:33:57;409.70;2201.60
55008;DHT22;40902;45.116;21.296;2024-02-28T07:36:23;409.70;2201.60
55008;DHT22;40902;45.116;21.296;2024-02-28T07:38:48;409.70;2201.60
55008;DHT22;40902;45.116;21.296;2024-02-28T07:41:14;409.70;2201.60
55008;DHT22;40902;45.116;21.296;2024-02-28T07:43:43;409.80;2201.60
55008;DHT22;40902;45.116;21.296;2024-02-28T07:46:09;409.70;2201.60
55008;DHT22;40902;45.116;21.296;2024-02-28T07:48:39;409.80;2201.60
55008;DHT22;40902;45.116;21.296;2024-02-28T07:51:05;409.90;2201.60
55008;DHT22;40902;45.116;21.296;2024-02-28T07:53:31;409.90;2201.60
55008;DHT22;40902;45.116;21.296;2024-02-28T07:55:57;410.00;2201.60
55008;DHT22;40902;45.116;21.296;2024-02-28T07:58:23;409.90;2176.00
55008;DHT22;40902;45.116;21.296;2024-02-28T08:00:49;410.00;2176.00
55008;DHT22;40902;45.116;21.296;2024-02-28T08:03:15;410.00;2176.00
55008;DHT22;40902;45.116;21.296;2024-02-28T08:05:43;410.10;2176.00
55008;DHT22;40902;45.116;21.296;2024-02-28T08:08:10;410.10;2176.00
55008;DHT22;40902;45.116;21.296;2024-02-28T08:10:37;410.00;2176.00
55008;DHT22;40902;45.116;21.296;2024-02-28T08:13:04;410.00;2176.00
55008;DHT22;40902;45.116;21.296;2024-02-28T08:15:30;410.00;2176.00
55008;DHT22;40902;45.116;21.296;2024-02-28T08:17:56;410.00;2201.60
55008;DHT22;40902;45.116;21.296;2024-02-28T08:20:21;410.00;2201.60
55008;DHT22;40902;45.116;21.296;2024-02-28T08:22:47;410.10;2201.60
55008;DHT22;40902;45.116;21.296;2024-02-28T08:25:13;410.00;2176.00
55008;DHT22;40902;45.116;21.296;2024-02-28T08:27:40;410.00;2176.00
55008;DHT22;40902;45.116;21.296;2024-02-28T08:30:06;409.90;2176.00
55008;DHT22;40902;45.116;21.296;2024-02-28T08:32:32;409.90;2201.60
55008;DHT22;40902;45.116;21.296;2024-02-28T08:34:58;409.80;2201.60
55008;DHT22;40902;45.116;21.296;2024-02-28T08:37:24;409.80;2201.60
55008;DHT22;40902;45.116;21.296;2024-02-28T08:39:50;409.80;2201.60
55008;DHT22;40902;45.116;21.296;2024-02-28T08:42:16;409.80;2227.20
55008;DHT22;40902;45.116;21.296;2024-02-28T08:44:42;409.90;2227.20
55008;DHT22;40902;45.116;21.296;2024-02-28T08:47:07;410.20;2227.20
55008;DHT22;40902;45.116;21.296;2024-02-28T08:49:35;410.30;2201.60
55008;DHT22;40902;45.116;21.296;2024-02-28T08:52:01;410.40;2201.60
55008;DHT22;40902;45.116;21.296;2024-02-28T09:06:40;435.70;2150.40
55008;DHT22;40902;45.116;21.296;2024-02-28T09:09:05;435.60;2150.40
55008;DHT22;40902;45.116;21.296;2024-02-28T09:11:31;435.50;2150.40
55008;DHT22;40902;45.116;21.296;2024-02-28T09:13:57;435.60;2124.80
55008;DHT22;40902;45.116;21.296;2024-02-28T09:16:25;435.50;2124.80
55008;DHT22;40902;45.116;21.296;2024-02-28T09:18:50;435.60;2124.80
55008;DHT22;40902;45.116;21.296;2024-02-28T09:21:16;435.70;2124.80
55008;DHT22;40902;45.116;21.296;2024-02-28T09:23:42;435.80;2124.80
55008;DHT22;40902;45.116;21.296;2024-02-28T09:26:08;435.90;2124.80
55008;DHT22;40902;45.116;21.296;2024-02-28T09:30:59;461.00;2124.80
55008;DHT22;40902;45.116;21.296;2024-02-28T09:33:25;436.10;2099.20
55008;DHT22;40902;45.116;21.296;2024-02-28T09:35:51;436.10;2099.20
55008;DHT22;40902;45.116;21.296;2024-02-28T09:38:17;436.10;2099.20
55008;DHT22;40902;45.116;21.296;2024-02-28T09:40:47;460.80;2124.80
55008;DHT22;40902;45.116;21.296;2024-02-28T09:43:29;460.80;2124.80
55008;DHT22;40902;45.116;21.296;2024-02-28T09:46:14;460.80;2124.80
55008;DHT22;40902;45.116;21.296;2024-02-28T09:51:08;461.30;2099.20
55008;DHT22;40902;45.116;21.296;2024-02-28T09:53:34;461.00;2099.20
55008;DHT22;40902;45.116;21.296;2024-02-28T09:56:00;461.00;2099.20
55008;DHT22;40902;45.116;21.296;2024-02-28T09:58:27;461.00;2099.20
55008;DHT22;40902;45.116;21.296;2024-02-28T10:00:55;461.00;2099.20
55008;DHT22;40902;45.116;21.296;2024-02-28T10:03:24;461.00;2099.20
55008;DHT22;40902;45.116;21.296;2024-02-28T10:05:51;461.20;2099.20
55008;DHT22;40902;45.116;21.296;2024-02-28T10:08:17;461.30;2124.80
55008;DHT22;40902;45.116;21.296;2024-02-28T10:10:47;461.50;2073.60
55008;DHT22;40902;45.116;21.296;2024-02-28T10:18:06;461.70;2073.60
55008;DHT22;40902;45.116;21.296;2024-02-28T10:20:32;461.50;2073.60
55008;DHT22;40902;45.116;21.296;2024-02-28T10:22:58;461.50;2073.60
55008;DHT22;40902;45.116;21.296;2024-02-28T10:25:23;461.50;2073.60
55008;DHT22;40902;45.116;21.296;2024-02-28T10:27:49;461.60;2073.60
55008;DHT22;40902;45.116;21.296;2024-02-28T10:30:15;461.70;2099.20
55008;DHT22;40902;45.116;21.296;2024-02-28T10:32:49;486.50;2099.20
55008;DHT22;40902;45.116;21.296;2024-02-28T10:35:18;461.70;2073.60
55008;DHT22;40902;45.116;21.296;2024-02-28T10:37:53;461.70;2073.60
55008;DHT22;40902;45.116;21.296;2024-02-28T10:40:20;486.40;2073.60
55008;DHT22;40902;45.116;21.296;2024-02-28T10:42:48;486.50;2099.20
55008;DHT22;40902;45.116;21.296;2024-02-28T10:45:17;486.70;2073.60
55008;DHT22;40902;45.116;21.296;2024-02-28T10:47:43;486.70;2073.60
55008;DHT22;40902;45.116;21.296;2024-02-28T10:50:09;486.50;2073.60
55008;DHT22;40902;45.116;21.296;2024-02-28T10:52:41;486.70;2099.20
55008;DHT22;40902;45.116;21.296;2024-02-28T10:55:09;486.70;2048.00
55008;DHT22;40902;45.116;21.296;2024-02-28T10:57:36;486.80;2048.00
55008;DHT22;40902;45.116;21.296;2024-02-28T11:00:03;486.90;2073.60
55008;DHT22;40902;45.116;21.296;2024-02-28T11:02:31;487.30;2022.40
55008;DHT22;40902;45.116;21.296;2024-02-28T11:04:57;487.10;2048.00
55008;DHT22;40902;45.116;21.296;2024-02-28T11:07:26;487.00;2022.40
55008;DHT22;40902;45.116;21.296;2024-02-28T11:09:55;487.10;2022.40
55008;DHT22;40902;45.116;21.296;2024-02-28T11:12:28;487.10;2022.40
55008;DHT22;40902;45.116;21.296;2024-02-28T11:15:01;487.10;2022.40
55008;DHT22;40902;45.116;21.296;2024-02-28T11:17:31;487.10;2022.40
55008;DHT22;40902;45.116;21.296;2024-02-28T11:19:57;512.20;1996.80
55008;DHT22;40902;45.116;21.296;2024-02-28T11:22:23;487.30;1996.80
55008;DHT22;40902;45.116;21.296;2024-02-28T11:24:53;487.30;1996.80
55008;DHT22;40902;45.116;21.296;2024-02-28T11:27:19;487.30;1971.20
55008;DHT22;40902;45.116;21.296;2024-02-28T11:29:44;512.00;1971.20
55008;DHT22;40902;45.116;21.296;2024-02-28T11:32:13;487.30;1996.80
55008;DHT22;40902;45.116;21.296;2024-02-28T11:34:40;512.00;1971.20
55008;DHT22;40902;45.116;21.296;2024-02-28T11:37:09;512.00;1971.20
55008;DHT22;40902;45.116;21.296;2024-02-28T11:39:35;512.00;1971.20
55008;DHT22;40902;45.116;21.296;2024-02-28T11:42:15;512.00;1971.20
55008;DHT22;40902;45.116;21.296;2024-02-28T11:44:42;512.00;1971.20
55008;DHT22;40902;45.116;21.296;2024-02-28T11:47:11;512.00;1971.20
55008;DHT22;40902;45.116;21.296;2024-02-28T11:49:40;487.30;1971.20
55008;DHT22;40902;45.116;21.296;2024-02-28T11:52:05;487.30;1971.20
55008;DHT22;40902;45.116;21.296;2024-02-28T11:54:31;487.30;1971.20
55008;DHT22;40902;45.116;21.296;2024-02-28T11:56:58;487.20;1971.20
55008;DHT22;40902;45.116;21.296;2024-02-28T11:59:23;487.20;1996.80
55008;DHT22;40902;45.116;21.296;2024-02-28T12:01:49;487.20;1996.80
55008;DHT22;40902;45.116;21.296;2024-02-28T12:04:17;487.30;1996.80
55008;DHT22;40902;45.116;21.296;2024-02-28T12:06:42;487.30;1996.80
55008;DHT22;40902;45.116;21.296;2024-02-28T12:09:11;487.30;1996.80
55008;DHT22;40902;45.116;21.296;2024-02-28T12:11:39;487.30;1996.80
55008;DHT22;40902;45.116;21.296;2024-02-28T12:14:09;487.30;1996.80
55008;DHT22;40902;45.116;21.296;2024-02-28T12:16:39;487.30;1996.80
55008;DHT22;40902;45.116;21.296;2024-02-28T12:19:12;512.00;1996.80
55008;DHT22;40902;45.116;21.296;2024-02-28T12:21:39;512.00;1971.20
55008;DHT22;40902;45.116;21.296;2024-02-28T12:24:07;512.00;1971.20
55008;DHT22;40902;45.116;21.296;2024-02-28T12:26:34;512.10;1971.20
55008;DHT22;40902;45.116;21.296;2024-02-28T12:29:00;512.20;1971.20
55008;DHT22;40902;45.116;21.296;2024-02-28T12:31:27;512.20;1971.20
55008;DHT22;40902;45.116;21.296;2024-02-28T12:33:53;512.20;1971.20
55008;DHT22;40902;45.116;21.296;2024-02-28T12:36:20;512.20;1971.20
55008;DHT22;40902;45.116;21.296;2024-02-28T12:38:46;512.20;1945.60
55008;DHT22;40902;45.116;21.296;2024-02-28T12:41:12;512.20;1945.60
55008;DHT22;40902;45.116;21.296;2024-02-28T12:43:39;512.30;1971.20
55008;DHT22;40902;45.116;21.296;2024-02-28T12:46:05;512.30;1945.60
55008;DHT22;40902;45.116;21.296;2024-02-28T12:48:36;512.40;1971.20
55008;DHT22;40902;45.116;21.296;2024-02-28T12:51:03;512.40;1945.60
55008;DHT22;40902;45.116;21.296;2024-02-28T12:53:29;512.20;1945.60
55008;DHT22;40902;45.116;21.296;2024-02-28T12:55:55;512.30;1945.60
55008;DHT22;40902;45.116;21.296;2024-02-28T12:58:20;512.20;1945.60
55008;DHT22;40902;45.116;21.296;2024-02-28T13:00:46;512.10;1920.00
55008;DHT22;40902;45.116;21.296;2024-02-28T13:03:12;512.00;1945.60
55008;DHT22;40902;45.116;21.296;2024-02-28T13:05:37;512.00;1945.60
55008;DHT22;40902;45.116;21.296;2024-02-28T13:08:04;512.00;1945.60
55008;DHT22;40902;45.116;21.296;2024-02-28T13:10:30;512.00;1945.60
55008;DHT22;40902;45.116;21.296;2024-02-28T13:12:55;512.00;1945.60
55008;DHT22;40902;45.116;21.296;2024-02-28T13:15:21;512.00;1945.60
55008;DHT22;40902;45.116;21.296;2024-02-28T13:17:47;487.30;1945.60
55008;DHT22;40902;45.116;21.296;2024-02-28T13:20:15;487.30;1945.60
55008;DHT22;40902;45.116;21.296;2024-02-28T13:22:41;487.30;1945.60
55008;DHT22;40902;45.116;21.296;2024-02-28T13:25:07;487.30;1945.60
55008;DHT22;40902;45.116;21.296;2024-02-28T13:27:34;487.30;1945.60
55008;DHT22;40902;45.116;21.296;2024-02-28T13:30:00;487.30;1945.60
55008;DHT22;40902;45.116;21.296;2024-02-28T13:32:26;512.00;1971.20
55008;DHT22;40902;45.116;21.296;2024-02-28T13:34:51;512.00;1945.60
55008;DHT22;40902;45.116;21.296;2024-02-28T13:37:20;512.00;1945.60
55008;DHT22;40902;45.116;21.296;2024-02-28T13:39:46;512.00;1945.60
55008;DHT22;40902;45.116;21.296;2024-02-28T13:42:13;512.00;1920.00
55008;DHT22;40902;45.116;21.296;2024-02-28T13:44:39;512.00;1920.00
55008;DHT22;40902;45.116;21.296;2024-02-28T13:47:06;512.00;1920.00
55008;DHT22;40902;45.116;21.296;2024-02-28T13:49:32;487.30;1920.00
55008;DHT22;40902;45.116;21.296;2024-02-28T13:51:57;512.00;1920.00
55008;DHT22;40902;45.116;21.296;2024-02-28T13:54:23;512.00;1920.00
55008;DHT22;40902;45.116;21.296;2024-02-28T13:56:49;512.00;1920.00
55008;DHT22;40902;45.116;21.296;2024-02-28T13:59:15;512.00;1920.00
55008;DHT22;40902;45.116;21.296;2024-02-28T14:01:40;512.00;1920.00
55008;DHT22;40902;45.116;21.296;2024-02-28T14:04:06;512.00;1920.00
55008;DHT22;40902;45.116;21.296;2024-02-28T14:06:32;512.00;1920.00
55008;DHT22;40902;45.116;21.296;2024-02-28T14:08:58;512.10;1920.00
55008;DHT22;40902;45.116;21.296;2024-02-28T14:11:24;512.10;1920.00
55008;DHT22;40902;45.116;21.296;2024-02-28T14:13:50;512.00;1920.00
55008;DHT22;40902;45.116;21.296;2024-02-28T14:16:15;512.00;1920.00
55008;DHT22;40902;45.116;21.296;2024-02-28T14:18:41;512.00;1920.00
55008;DHT22;40902;45.116;21.296;2024-02-28T14:21:07;487.30;1920.00
55008;DHT22;40902;45.116;21.296;2024-02-28T14:23:33;487.30;1920.00
55008;DHT22;40902;45.116;21.296;2024-02-28T14:25:58;487.30;1920.00
55008;DHT22;40902;45.116;21.296;2024-02-28T14:28:24;487.30;1920.00
55008;DHT22;40902;45.116;21.296;2024-02-28T14:30:50;487.30;1920.00
55008;DHT22;40902;45.116;21.296;2024-02-28T14:33:16;487.30;1920.00
55008;DHT22;40902;45.116;21.296;2024-02-28T14:35:41;487.30;1894.40
55008;DHT22;40902;45.116;21.296;2024-02-28T14:38:07;487.30;1920.00
55008;DHT22;40902;45.116;21.296;2024-02-28T14:40:33;487.30;1920.00
55008;DHT22;40902;45.116;21.296;2024-02-28T14:42:59;487.30;1920.00
55008;DHT22;40902;45.116;21.296;2024-02-28T14:45:24;487.20;1920.00
55008;DHT22;40902;45.116;21.296;2024-02-28T14:47:53;487.30;1920.00
55008;DHT22;40902;45.116;21.296;2024-02-28T14:50:19;487.30;1894.40
55008;DHT22;40902;45.116;21.296;2024-02-28T14:52:46;487.30;1920.00
55008;DHT22;40902;45.116;21.296;2024-02-28T14:55:12;487.30;1920.00